Time,TemperatureF,DewpointF,PressureIn,WindDirection,WindDirectionDegrees,WindSpeedMPH,WindSpeedGustMPH,Humidity,HourlyPrecipIn,Conditions,Clouds,dailyrainin,SoftwareType,DateUTC
2013-03-31 00:02:00,46.6,38.8,29.81,WSW,247,0.0,5.0,74,0.00,,,0.00,WUHU21023XXSP,2013-03-31 05:02:00,
2013-03-31 00:08:00,46.8,38.9,29.82,WSW,247,0.0,5.0,74,0.00,,,0.00,WUHU21023XXSP,2013-03-31 05:08:00,
2013-03-31 00:15:00,46.6,38.8,29.82,SSW,202,0.0,7.0,74,0.00,,,0.00,WUHU21023XXSP,2013-03-31 05:15:00,
2013-03-31 00:21:00,46.6,39.1,29.81,SW,225,4.0,7.0,75,0.00,,,0.00,WUHU21023XXSP,2013-03-31 05:21:00,
2013-03-31 00:28:00,46.2,39.1,29.81,SSW,202,3.0,7.0,76,0.00,,,0.00,WUHU21023XXSP,2013-03-31 05:28:00,
2013-03-31 00:34:00,45.9,39.1,29.81,West,270,2.0,7.0,77,0.00,,,0.00,WUHU21023XXSP,2013-03-31 05:34:00,
2013-03-31 00:40:00,45.5,38.7,29.80,SSW,202,6.0,6.0,77,0.00,,,0.00,WUHU21023XXSP,2013-03-31 05:40:00,
2013-03-31 00:47:00,45.3,38.5,29.80,SSW,202,0.0,6.0,77,0.00,,,0.00,WUHU21023XXSP,2013-03-31 05:47:00,
2013-03-31 00:53:00,45.0,38.5,29.80,SW,225,5.0,5.0,78,0.00,,,0.00,WUHU21023XXSP,2013-03-31 05:53:00,
2013-03-31 01:02:00,45.0,38.5,29.80,SW,225,0.0,5.0,78,0.00,,,0.00,WUHU21023XXSP,2013-03-31 06:02:00,
2013-03-31 01:08:00,44.6,38.5,29.80,SW,225,0.0,0.0,79,0.00,,,0.00,WUHU21023XXSP,2013-03-31 06:08:00,
2013-03-31 01:15:00,44.4,38.3,29.80,WSW,247,0.0,0.0,79,0.00,,,0.00,WUHU21023XXSP,2013-03-31 06:15:00,
2013-03-31 01:21:00,44.2,38.5,29.80,West,270,0.0,0.0,80,0.00,,,0.00,WUHU21023XXSP,2013-03-31 06:21:00,
2013-03-31 01:28:00,44.2,38.5,29.80,WSW,247,5.0,5.0,80,0.00,,,0.00,WUHU21023XXSP,2013-03-31 06:28:00,
2013-03-31 01:34:00,44.1,38.3,29.80,SSW,202,0.0,7.0,80,0.00,,,0.00,WUHU21023XXSP,2013-03-31 06:34:00,
2013-03-31 01:40:00,43.9,38.4,29.80,West,270,0.0,0.0,81,0.00,,,0.00,WUHU21023XXSP,2013-03-31 06:40:00,
2013-03-31 01:47:00,43.9,38.4,29.79,WSW,247,0.0,0.0,81,0.00,,,0.00,WUHU21023XXSP,2013-03-31 06:47:00,
2013-03-31 01:53:00,43.7,38.2,29.79,SSW,202,0.0,0.0,81,0.00,,,0.00,WUHU21023XXSP,2013-03-31 06:53:00,
2013-03-31 02:00:00,43.7,38.2,29.78,WSW,247,0.0,0.0,81,0.00,,,0.00,WUHU21023XXSP,2013-03-31 07:00:00,
2013-03-31 02:06:00,43.5,38.1,29.78,South,180,5.0,5.0,81,0.00,,,0.00,WUHU21023XXSP,2013-03-31 07:06:00,
2013-03-31 02:13:00,43.5,38.4,29.78,West,270,0.0,5.0,82,0.00,,,0.00,WUHU21023XXSP,2013-03-31 07:13:00,
2013-03-31 02:19:00,43.5,38.1,29.78,West,270,0.0,0.0,81,0.00,,,0.00,WUHU21023XXSP,2013-03-31 07:19:00,
2013-03-31 02:25:00,43.5,38.1,29.77,SSW,202,0.0,0.0,81,0.00,,,0.00,WUHU21023XXSP,2013-03-31 07:25:00,
2013-03-31 02:32:00,43.3,37.9,29.77,WSW,247,0.0,0.0,81,0.00,,,0.00,WUHU21023XXSP,2013-03-31 07:32:00,
2013-03-31 02:38:00,43.3,38.2,29.77,West,270,0.0,0.0,82,0.00,,,0.00,WUHU21023XXSP,2013-03-31 07:38:00,
2013-03-31 02:45:00,43.2,38.0,29.78,NW,315,0.0,0.0,82,0.00,,,0.00,WUHU21023XXSP,2013-03-31 07:45:00,
2013-03-31 02:53:00,43.0,38.1,29.78,WNW,292,0.0,7.0,83,0.00,,,0.00,WUHU21023XXSP,2013-03-31 07:53:00,
2013-03-31 03:00:00,43.0,38.1,29.78,WNW,292,0.0,6.0,83,0.00,,,0.00,WUHU21023XXSP,2013-03-31 08:00:00,
2013-03-31 03:07:00,43.0,38.1,29.78,West,270,7.0,11.0,83,0.00,,,0.00,WUHU21023XXSP,2013-03-31 08:07:00,
2013-03-31 03:13:00,43.0,38.1,29.77,WNW,292,0.0,7.0,83,0.00,,,0.00,WUHU21023XXSP,2013-03-31 08:13:00,
2013-03-31 03:19:00,42.6,37.8,29.77,WNW,292,6.0,7.0,83,0.00,,,0.00,WUHU21023XXSP,2013-03-31 08:19:00,
2013-03-31 03:25:00,42.6,37.8,29.77,NW,315,3.0,7.0,83,0.00,,,0.00,WUHU21023XXSP,2013-03-31 08:25:00,
2013-03-31 03:32:00,42.6,37.8,29.78,West,270,0.0,4.0,83,0.00,,,0.00,WUHU21023XXSP,2013-03-31 08:32:00,
2013-03-31 03:38:00,42.4,37.6,29.78,West,270,0.0,5.0,83,0.00,,,0.00,WUHU21023XXSP,2013-03-31 08:38:00,
2013-03-31 03:45:00,42.4,37.6,29.77,WNW,292,0.0,0.0,83,0.00,,,0.00,WUHU21023XXSP,2013-03-31 08:45:00,
2013-03-31 03:51:00,42.1,37.2,29.77,West,270,7.0,7.0,83,0.00,,,0.00,WUHU21023XXSP,2013-03-31 08:51:00,
2013-03-31 03:58:00,41.9,37.1,29.77,WNW,292,5.0,7.0,83,0.00,,,0.00,WUHU21023XXSP,2013-03-31 08:58:00,
2013-03-31 04:04:00,41.7,36.9,29.77,NW,315,0.0,5.0,83,0.00,,,0.00,WUHU21023XXSP,2013-03-31 09:04:00,
2013-03-31 04:10:00,41.5,36.7,29.77,West,270,0.0,6.0,83,0.00,,,0.00,WUHU21023XXSP,2013-03-31 09:10:00,
2013-03-31 04:17:00,41.4,36.5,29.77,NW,315,4.0,6.0,83,0.00,,,0.00,WUHU21023XXSP,2013-03-31 09:17:00,
2013-03-31 04:23:00,41.0,36.2,29.77,NW,315,0.0,4.0,83,0.00,,,0.00,WUHU21023XXSP,2013-03-31 09:23:00,
2013-03-31 04:30:00,40.6,35.5,29.76,WNW,292,0.0,4.0,82,0.00,,,0.00,WUHU21023XXSP,2013-03-31 09:30:00,
2013-03-31 04:36:00,40.3,35.2,29.77,WNW,292,0.0,0.0,82,0.00,,,0.00,WUHU21023XXSP,2013-03-31 09:36:00,
2013-03-31 04:42:00,39.9,34.8,29.77,WNW,292,0.0,0.0,82,0.00,,,0.00,WUHU21023XXSP,2013-03-31 09:42:00,
2013-03-31 04:49:00,39.7,35.0,29.77,WNW,292,5.0,5.0,83,0.00,,,0.00,WUHU21023XXSP,2013-03-31 09:49:00,
2013-03-31 04:55:00,39.4,34.6,29.77,WNW,292,3.0,5.0,83,0.00,,,0.00,WUHU21023XXSP,2013-03-31 09:55:00,
2013-03-31 05:02:00,39.0,34.3,29.77,WNW,292,0.0,3.0,83,0.00,,,0.00,WUHU21023XXSP,2013-03-31 10:02:00,
2013-03-31 05:08:00,38.8,34.1,29.77,West,270,0.0,0.0,83,0.00,,,0.00,WUHU21023XXSP,2013-03-31 10:08:00,
2013-03-31 05:15:00,38.5,33.8,29.77,West,270,6.0,6.0,83,0.00,,,0.00,WUHU21023XXSP,2013-03-31 10:15:00,
2013-03-31 05:21:00,38.5,33.8,29.77,West,270,4.0,6.0,83,0.00,,,0.00,WUHU21023XXSP,2013-03-31 10:21:00,
2013-03-31 05:27:00,38.1,33.7,29.77,WNW,292,5.0,5.0,84,0.00,,,0.00,WUHU21023XXSP,2013-03-31 10:27:00,
2013-03-31 05:34:00,38.1,33.7,29.77,WNW,292,7.0,10.0,84,0.00,,,0.00,WUHU21023XXSP,2013-03-31 10:34:00,
2013-03-31 05:40:00,38.1,33.7,29.77,NW,315,7.0,10.0,84,0.00,,,0.00,WUHU21023XXSP,2013-03-31 10:40:00,
2013-03-31 05:47:00,37.9,33.5,29.77,WNW,292,7.0,7.0,84,0.00,,,0.00,WUHU21023XXSP,2013-03-31 10:47:00,
2013-03-31 05:53:00,37.9,33.5,29.77,West,270,0.0,7.0,84,0.00,,,0.00,WUHU21023XXSP,2013-03-31 10:53:00,
2013-03-31 06:00:00,37.9,33.5,29.77,WNW,292,8.0,8.0,84,0.00,,,0.00,WUHU21023XXSP,2013-03-31 11:00:00,
2013-03-31 06:06:00,37.9,33.5,29.77,West,270,6.0,8.0,84,0.00,,,0.00,WUHU21023XXSP,2013-03-31 11:06:00,
2013-03-31 06:12:00,37.9,33.5,29.77,NW,315,7.0,7.0,84,0.00,,,0.00,WUHU21023XXSP,2013-03-31 11:12:00,
2013-03-31 06:19:00,37.9,33.5,29.77,WNW,292,0.0,7.0,84,0.00,,,0.00,WUHU21023XXSP,2013-03-31 11:19:00,
2013-03-31 06:25:00,37.9,33.5,29.77,WNW,292,0.0,6.0,84,0.00,,,0.00,WUHU21023XXSP,2013-03-31 11:25:00,
2013-03-31 06:32:00,37.9,33.5,29.77,WNW,292,0.0,8.0,84,0.00,,,0.00,WUHU21023XXSP,2013-03-31 11:32:00,
2013-03-31 06:38:00,37.9,33.5,29.77,NW,315,3.0,4.0,84,0.00,,,0.00,WUHU21023XXSP,2013-03-31 11:38:00,
2013-03-31 06:45:00,37.9,33.5,29.77,WNW,292,0.0,4.0,84,0.00,,,0.00,WUHU21023XXSP,2013-03-31 11:45:00,
2013-03-31 06:51:00,37.9,33.5,29.77,West,270,0.0,7.0,84,0.00,,,0.00,WUHU21023XXSP,2013-03-31 11:51:00,
2013-03-31 06:57:00,37.9,33.8,29.77,WNW,292,0.0,7.0,85,0.00,,,0.00,WUHU21023XXSP,2013-03-31 11:57:00,
2013-03-31 07:04:00,38.1,33.7,29.77,WSW,247,3.0,3.0,84,0.00,,,0.00,WUHU21023XXSP,2013-03-31 12:04:00,
2013-03-31 07:10:00,38.1,33.7,29.77,West,270,0.0,4.0,84,0.00,,,0.00,WUHU21023XXSP,2013-03-31 12:10:00,
2013-03-31 07:17:00,38.1,33.7,29.77,WNW,292,0.0,5.0,84,0.00,,,0.00,WUHU21023XXSP,2013-03-31 12:17:00,
2013-03-31 07:23:00,38.3,34.2,29.77,WNW,292,2.0,5.0,85,0.00,,,0.00,WUHU21023XXSP,2013-03-31 12:23:00,
2013-03-31 07:30:00,38.3,34.2,29.77,WNW,292,0.0,3.0,85,0.00,,,0.00,WUHU21023XXSP,2013-03-31 12:30:00,
2013-03-31 07:36:00,38.3,34.2,29.77,West,270,0.0,7.0,85,0.00,,,0.00,WUHU21023XXSP,2013-03-31 12:36:00,
2013-03-31 07:42:00,38.5,34.3,29.77,WNW,292,0.0,7.0,85,0.00,,,0.00,WUHU21023XXSP,2013-03-31 12:42:00,
2013-03-31 07:49:00,38.5,34.3,29.77,West,270,3.0,3.0,85,0.00,,,0.00,WUHU21023XXSP,2013-03-31 12:49:00,
2013-03-31 07:55:00,38.5,34.3,29.77,West,270,5.0,6.0,85,0.00,,,0.00,WUHU21023XXSP,2013-03-31 12:55:00,
2013-03-31 08:02:00,38.8,34.7,29.76,WSW,247,0.0,5.0,85,0.00,,,0.00,WUHU21023XXSP,2013-03-31 13:02:00,
2013-03-31 08:08:00,38.8,34.4,29.76,West,270,0.0,0.0,84,0.00,,,0.00,WUHU21023XXSP,2013-03-31 13:08:00,
2013-03-31 08:15:00,38.8,34.4,29.76,WSW,247,0.0,0.0,84,0.00,,,0.00,WUHU21023XXSP,2013-03-31 13:15:00,
2013-03-31 08:21:00,39.0,34.6,29.76,SSW,202,0.0,0.0,84,0.00,,,0.00,WUHU21023XXSP,2013-03-31 13:21:00,
2013-03-31 08:27:00,39.0,34.6,29.76,West,270,0.0,3.0,84,0.00,,,0.00,WUHU21023XXSP,2013-03-31 13:27:00,
2013-03-31 08:34:00,39.4,34.9,29.76,WNW,292,0.0,6.0,84,0.00,,,0.00,WUHU21023XXSP,2013-03-31 13:34:00,
2013-03-31 08:40:00,39.4,34.9,29.76,West,270,0.0,0.0,84,0.00,,,0.00,WUHU21023XXSP,2013-03-31 13:40:00,
2013-03-31 08:47:00,39.4,34.9,29.75,West,270,0.0,0.0,84,0.00,,,0.00,WUHU21023XXSP,2013-03-31 13:47:00,
2013-03-31 08:53:00,39.6,35.1,29.75,West,270,0.0,0.0,84,0.00,,,0.00,WUHU21023XXSP,2013-03-31 13:53:00,
2013-03-31 09:00:00,39.7,35.3,29.75,WSW,247,5.0,5.0,84,0.00,,,0.00,WUHU21023XXSP,2013-03-31 14:00:00,
2013-03-31 09:06:00,39.9,35.4,29.75,West,270,0.0,6.0,84,0.00,,,0.00,WUHU21023XXSP,2013-03-31 14:06:00,
2013-03-31 09:12:00,39.9,35.4,29.75,WSW,247,0.0,5.0,84,0.00,,,0.00,WUHU21023XXSP,2013-03-31 14:12:00,
2013-03-31 09:19:00,40.5,35.9,29.75,SW,225,0.0,5.0,84,0.00,,,0.00,WUHU21023XXSP,2013-03-31 14:19:00,
2013-03-31 09:25:00,40.8,36.0,29.75,West,270,3.0,4.0,83,0.00,,,0.00,WUHU21023XXSP,2013-03-31 14:25:00,
2013-03-31 09:32:00,41.0,36.2,29.75,SSW,202,10.0,13.0,83,0.00,,,0.00,WUHU21023XXSP,2013-03-31 14:32:00,
2013-03-31 09:38:00,41.2,36.3,29.75,WSW,247,0.0,13.0,83,0.00,,,0.00,WUHU21023XXSP,2013-03-31 14:38:00,
2013-03-31 09:45:00,41.4,36.5,29.75,West,270,0.0,1.0,83,0.00,,,0.00,WUHU21023XXSP,2013-03-31 14:45:00,
2013-03-31 09:51:00,41.7,36.6,29.75,WSW,247,0.0,5.0,82,0.00,,,0.00,WUHU21023XXSP,2013-03-31 14:51:00,
2013-03-31 09:57:00,41.9,36.8,29.74,West,270,5.0,11.0,82,0.00,,,0.00,WUHU21023XXSP,2013-03-31 14:57:00,
2013-03-31 10:04:00,42.3,36.8,29.74,West,270,0.0,11.0,81,0.00,,,0.00,WUHU21023XXSP,2013-03-31 15:04:00,
2013-03-31 10:10:00,42.4,37.0,29.75,WSW,247,6.0,6.0,81,0.00,,,0.00,WUHU21023XXSP,2013-03-31 15:10:00,
2013-03-31 10:17:00,43.0,37.5,29.74,SW,225,7.0,7.0,81,0.00,,,0.00,WUHU21023XXSP,2013-03-31 15:17:00,
2013-03-31 10:23:00,43.5,37.8,29.74,SSW,202,1.0,9.0,80,0.00,,,0.00,WUHU21023XXSP,2013-03-31 15:23:00,
2013-03-31 10:30:00,44.4,38.3,29.74,SSE,157,3.0,9.0,79,0.00,,,0.00,WUHU21023XXSP,2013-03-31 15:30:00,
2013-03-31 10:36:00,45.1,38.7,29.74,SW,225,6.0,8.0,78,0.00,,,0.00,WUHU21023XXSP,2013-03-31 15:36:00,
2013-03-31 10:42:00,45.5,38.7,29.73,SSW,202,11.0,11.0,77,0.00,,,0.00,WUHU21023XXSP,2013-03-31 15:42:00,
2013-03-31 10:49:00,46.0,38.9,29.74,SSW,202,7.0,11.0,76,0.00,,,0.00,WUHU21023XXSP,2013-03-31 15:49:00,
2013-03-31 10:55:00,46.2,39.1,29.74,SSW,202,8.0,11.0,76,0.00,,,0.00,WUHU21023XXSP,2013-03-31 15:55:00,
2013-03-31 11:02:00,46.6,39.1,29.74,SSW,202,0.0,9.0,75,0.00,,,0.00,WUHU21023XXSP,2013-03-31 16:02:00,
2013-03-31 11:08:00,47.3,39.4,29.73,South,180,11.0,11.0,74,0.00,,,0.00,WUHU21023XXSP,2013-03-31 16:08:00,
2013-03-31 11:14:00,47.7,39.4,29.73,SW,225,8.0,11.0,73,0.00,,,0.00,WUHU21023XXSP,2013-03-31 16:14:00,
2013-03-31 11:21:00,47.8,39.5,29.72,West,270,3.0,9.0,73,0.00,,,0.00,WUHU21023XXSP,2013-03-31 16:21:00,
2013-03-31 11:27:00,48.4,40.0,29.72,West,270,5.0,6.0,73,0.00,,,0.00,WUHU21023XXSP,2013-03-31 16:27:00,
2013-03-31 11:34:00,49.1,40.4,29.72,WNW,292,0.0,6.0,72,0.00,,,0.00,WUHU21023XXSP,2013-03-31 16:34:00,
2013-03-31 11:40:00,49.3,40.3,29.72,West,270,0.0,13.0,71,0.00,,,0.00,WUHU21023XXSP,2013-03-31 16:40:00,
2013-03-31 11:47:00,49.6,39.9,29.72,WNW,292,0.0,7.0,69,0.00,,,0.00,WUHU21023XXSP,2013-03-31 16:47:00,
2013-03-31 11:53:00,50.2,40.0,29.72,WSW,247,0.0,12.0,68,0.00,,,0.00,WUHU21023XXSP,2013-03-31 16:53:00,
2013-03-31 11:59:00,50.5,40.4,29.71,WNW,292,0.0,12.0,68,0.00,,,0.00,WUHU21023XXSP,2013-03-31 16:59:00,
2013-03-31 12:06:00,50.9,39.9,29.71,West,270,0.0,5.0,66,0.00,,,0.00,WUHU21023XXSP,2013-03-31 17:06:00,
2013-03-31 12:12:00,51.1,40.1,29.71,NNW,337,0.0,5.0,66,0.00,,,0.00,WUHU21023XXSP,2013-03-31 17:12:00,
2013-03-31 12:19:00,50.9,39.5,29.71,NW,315,6.0,9.0,65,0.00,,,0.00,WUHU21023XXSP,2013-03-31 17:19:00,
2013-03-31 12:25:00,50.7,38.9,29.71,NW,315,8.0,9.0,64,0.00,,,0.00,WUHU21023XXSP,2013-03-31 17:25:00,
2013-03-31 12:32:00,50.5,38.8,29.71,NW,315,7.0,8.0,64,0.00,,,0.00,WUHU21023XXSP,2013-03-31 17:32:00,
2013-03-31 12:38:00,50.7,37.7,29.70,West,270,5.0,9.0,61,0.00,,,0.00,WUHU21023XXSP,2013-03-31 17:38:00,
2013-03-31 12:44:00,50.7,38.1,29.70,WSW,247,8.0,9.0,62,0.00,,,0.00,WUHU21023XXSP,2013-03-31 17:44:00,
2013-03-31 12:51:00,51.4,38.8,29.69,NNW,337,3.0,9.0,62,0.00,,,0.00,WUHU21023XXSP,2013-03-31 17:51:00,
2013-03-31 12:57:00,51.6,38.5,29.70,NW,315,5.0,7.0,61,0.00,,,0.00,WUHU21023XXSP,2013-03-31 17:57:00,
2013-03-31 13:04:00,51.6,37.7,29.69,West,270,9.0,9.0,59,0.00,,,0.00,WUHU21023XXSP,2013-03-31 18:04:00,
2013-03-31 13:10:00,51.4,37.5,29.69,NW,315,8.0,9.0,59,0.00,,,0.00,WUHU21023XXSP,2013-03-31 18:10:00,
2013-03-31 13:17:00,51.6,37.2,29.69,WNW,292,8.0,9.0,58,0.00,,,0.00,WUHU21023XXSP,2013-03-31 18:17:00,
2013-03-31 13:23:00,51.6,36.8,29.69,NNW,337,8.0,9.0,57,0.00,,,0.00,WUHU21023XXSP,2013-03-31 18:23:00,
2013-03-31 13:29:00,51.6,36.8,29.69,NNW,337,2.0,8.0,57,0.00,,,0.00,WUHU21023XXSP,2013-03-31 18:29:00,
2013-03-31 13:36:00,51.6,36.8,29.69,WNW,292,6.0,12.0,57,0.00,,,0.00,WUHU21023XXSP,2013-03-31 18:36:00,
2013-03-31 13:42:00,52.0,37.6,29.69,West,270,3.0,6.0,58,0.00,,,0.00,WUHU21023XXSP,2013-03-31 18:42:00,
2013-03-31 13:49:00,52.3,37.0,29.69,West,270,6.0,7.0,56,0.00,,,0.00,WUHU21023XXSP,2013-03-31 18:49:00,
2013-03-31 13:55:00,52.3,37.0,29.69,WSW,247,6.0,7.0,56,0.00,,,0.00,WUHU21023XXSP,2013-03-31 18:55:00,
2013-03-31 14:02:00,52.2,36.8,29.69,NW,315,6.0,7.0,56,0.00,,,0.00,WUHU21023XXSP,2013-03-31 19:02:00,
2013-03-31 14:08:00,52.0,36.7,29.69,WNW,292,6.0,7.0,56,0.00,,,0.00,WUHU21023XXSP,2013-03-31 19:08:00,
2013-03-31 14:14:00,52.3,36.1,29.69,NW,315,7.0,8.0,54,0.00,,,0.00,WUHU21023XXSP,2013-03-31 19:14:00,
2013-03-31 14:21:00,52.3,36.6,29.69,WNW,292,4.0,8.0,55,0.00,,,0.00,WUHU21023XXSP,2013-03-31 19:21:00,
2013-03-31 14:27:00,52.5,36.7,29.69,WNW,292,1.0,4.0,55,0.00,,,0.00,WUHU21023XXSP,2013-03-31 19:27:00,
2013-03-31 14:34:00,52.2,36.4,29.69,NW,315,3.0,4.0,55,0.00,,,0.00,WUHU21023XXSP,2013-03-31 19:34:00,
2013-03-31 14:40:00,51.4,35.3,29.69,NW,315,7.0,12.0,54,0.00,,,0.00,WUHU21023XXSP,2013-03-31 19:40:00,
2013-03-31 14:47:00,50.7,34.6,29.69,NW,315,13.0,13.0,54,0.00,,,0.00,WUHU21023XXSP,2013-03-31 19:47:00,
2013-03-31 14:53:00,50.2,34.1,29.70,WNW,292,11.0,13.0,54,0.00,,,0.00,WUHU21023XXSP,2013-03-31 19:53:00,
2013-03-31 14:59:00,50.5,35.4,29.69,West,270,2.0,11.0,56,0.00,,,0.00,WUHU21023XXSP,2013-03-31 19:59:00,
2013-03-31 15:06:00,50.7,35.1,29.70,WNW,292,9.0,10.0,55,0.00,,,0.00,WUHU21023XXSP,2013-03-31 20:06:00,
2013-03-31 15:12:00,50.5,34.9,29.71,West,270,13.0,13.0,55,0.00,,,0.00,WUHU21023XXSP,2013-03-31 20:12:00,
2013-03-31 15:19:00,50.4,35.7,29.71,WNW,292,14.0,19.0,57,0.00,,,0.00,WUHU21023XXSP,2013-03-31 20:19:00,
2013-03-31 15:25:00,50.0,35.3,29.71,WNW,292,7.0,14.0,57,0.00,,,0.00,WUHU21023XXSP,2013-03-31 20:25:00,
2013-03-31 15:32:00,48.6,34.4,29.72,West,270,10.0,10.0,58,0.00,,,0.00,WUHU21023XXSP,2013-03-31 20:32:00,
2013-03-31 15:38:00,46.9,32.9,29.72,WNW,292,9.0,16.0,58,0.00,,,0.00,WUHU21023XXSP,2013-03-31 20:38:00,
2013-03-31 15:44:00,45.3,32.3,29.73,West,270,6.0,16.0,60,0.00,,,0.00,WUHU21023XXSP,2013-03-31 20:44:00,
2013-03-31 15:51:00,44.8,31.8,29.73,WNW,292,3.0,9.0,60,0.00,,,0.00,WUHU21023XXSP,2013-03-31 20:51:00,
2013-03-31 15:57:00,43.9,31.3,29.73,WNW,292,10.0,10.0,61,0.00,,,0.00,WUHU21023XXSP,2013-03-31 20:57:00,
2013-03-31 16:04:00,43.2,31.0,29.74,NW,315,0.0,12.0,62,0.00,,,0.00,WUHU21023XXSP,2013-03-31 21:04:00,
2013-03-31 16:10:00,42.6,30.8,29.74,WNW,292,8.0,12.0,63,0.00,,,0.00,WUHU21023XXSP,2013-03-31 21:10:00,
2013-03-31 16:16:00,42.4,30.7,29.74,NW,315,7.0,11.0,63,0.00,,,0.00,WUHU21023XXSP,2013-03-31 21:16:00,
2013-03-31 16:23:00,41.7,30.4,29.74,WNW,292,7.0,11.0,64,0.00,,,0.00,WUHU21023XXSP,2013-03-31 21:23:00,
2013-03-31 16:29:00,41.4,30.1,29.75,NW,315,9.0,9.0,64,0.00,,,0.00,WUHU21023XXSP,2013-03-31 21:29:00,
2013-03-31 16:36:00,40.8,29.6,29.74,WNW,292,10.0,10.0,64,0.00,,,0.00,WUHU21023XXSP,2013-03-31 21:36:00,
2013-03-31 16:42:00,40.6,29.0,29.75,WNW,292,4.0,10.0,63,0.00,,,0.00,WUHU21023XXSP,2013-03-31 21:42:00,
2013-03-31 16:49:00,40.6,29.4,29.75,NW,315,2.0,10.0,64,0.00,,,0.00,WUHU21023XXSP,2013-03-31 21:49:00,
2013-03-31 16:55:00,40.8,29.6,29.75,West,270,7.0,7.0,64,0.00,,,0.00,WUHU21023XXSP,2013-03-31 21:55:00,
2013-03-31 17:02:00,41.7,30.0,29.74,WNW,292,9.0,9.0,63,0.00,,,0.00,WUHU21023XXSP,2013-03-31 22:02:00,
2013-03-31 17:08:00,41.9,29.8,29.75,West,270,2.0,9.0,62,0.00,,,0.00,WUHU21023XXSP,2013-03-31 22:08:00,
2013-03-31 17:14:00,41.9,29.8,29.76,NW,315,9.0,9.0,62,0.00,,,0.00,WUHU21023XXSP,2013-03-31 22:14:00,
2013-03-31 17:21:00,41.5,29.5,29.76,WNW,292,11.0,11.0,62,0.00,,,0.00,WUHU21023XXSP,2013-03-31 22:21:00,
2013-03-31 17:27:00,41.4,29.3,29.76,WNW,292,1.0,11.0,62,0.00,,,0.00,WUHU21023XXSP,2013-03-31 22:27:00,
2013-03-31 17:34:00,41.2,29.1,29.76,West,270,4.0,4.0,62,0.00,,,0.00,WUHU21023XXSP,2013-03-31 22:34:00,
2013-03-31 17:40:00,41.2,29.1,29.77,WNW,292,0.0,4.0,62,0.00,,,0.00,WUHU21023XXSP,2013-03-31 22:40:00,
2013-03-31 17:46:00,41.0,29.0,29.77,WNW,292,2.0,9.0,62,0.00,,,0.00,WUHU21023XXSP,2013-03-31 22:46:00,
2013-03-31 17:53:00,40.8,29.2,29.77,WNW,292,1.0,9.0,63,0.00,,,0.00,WUHU21023XXSP,2013-03-31 22:53:00,
2013-03-31 17:59:00,41.2,29.5,29.76,West,270,9.0,9.0,63,0.00,,,0.00,WUHU21023XXSP,2013-03-31 22:59:00,
2013-03-31 18:06:00,41.2,29.5,29.76,NNW,337,0.0,9.0,63,0.00,,,0.00,WUHU21023XXSP,2013-03-31 23:06:00,
2013-03-31 18:12:00,41.4,29.3,29.76,NW,315,7.0,9.0,62,0.00,,,0.00,WUHU21023XXSP,2013-03-31 23:12:00,
2013-03-31 18:19:00,41.2,29.1,29.77,WNW,292,1.0,7.0,62,0.00,,,0.00,WUHU21023XXSP,2013-03-31 23:19:00,
2013-03-31 18:25:00,40.8,28.4,29.77,West,270,4.0,9.0,61,0.00,,,0.00,WUHU21023XXSP,2013-03-31 23:25:00,
2013-03-31 18:32:00,40.6,28.2,29.77,NW,315,0.0,6.0,61,0.00,,,0.00,WUHU21023XXSP,2013-03-31 23:32:00,
2013-03-31 18:38:00,40.5,28.1,29.77,West,270,0.0,6.0,61,0.00,,,0.00,WUHU21023XXSP,2013-03-31 23:38:00,
2013-03-31 18:44:00,40.5,28.1,29.77,NW,315,7.0,10.0,61,0.00,,,0.00,WUHU21023XXSP,2013-03-31 23:44:00,
2013-03-31 18:51:00,40.3,27.9,29.78,NW,315,9.0,10.0,61,0.00,,,0.00,WUHU21023XXSP,2013-03-31 23:51:00,
2013-03-31 18:57:00,39.9,27.5,29.78,WNW,292,1.0,10.0,61,0.00,,,0.00,WUHU21023XXSP,2013-03-31 23:57:00,
2013-03-31 19:03:00,39.7,27.3,29.79,NW,315,3.0,10.0,61,0.00,,,0.00,WUHU21023XXSP,2013-04-01 00:03:00,
2013-03-31 19:10:00,39.6,27.2,29.78,WNW,292,1.0,10.0,61,0.00,,,0.00,WUHU21023XXSP,2013-04-01 00:10:00,
2013-03-31 19:17:00,39.4,27.4,29.79,West,270,0.0,6.0,62,0.00,,,0.00,WUHU21023XXSP,2013-04-01 00:17:00,
2013-03-31 19:23:00,39.0,27.0,29.79,WNW,292,8.0,8.0,62,0.00,,,0.00,WUHU21023XXSP,2013-04-01 00:23:00,
2013-03-31 19:29:00,39.0,27.0,29.79,West,270,4.0,8.0,62,0.00,,,0.00,WUHU21023XXSP,2013-04-01 00:29:00,
2013-03-31 19:36:00,39.0,27.4,29.80,NW,315,4.0,8.0,63,0.00,,,0.00,WUHU21023XXSP,2013-04-01 00:36:00,
2013-03-31 19:42:00,38.8,27.6,29.81,West,270,8.0,9.0,64,0.00,,,0.00,WUHU21023XXSP,2013-04-01 00:42:00,
2013-03-31 19:48:00,38.5,28.0,29.81,WNW,292,8.0,8.0,66,0.00,,,0.00,WUHU21023XXSP,2013-04-01 00:48:00,
2013-03-31 19:55:00,37.9,28.7,29.82,WNW,292,3.0,12.0,69,0.00,,,0.00,WUHU21023XXSP,2013-04-01 00:55:00,
2013-03-31 20:01:00,37.2,28.0,29.82,WNW,292,0.0,12.0,69,0.00,,,0.00,WUHU21023XXSP,2013-04-01 01:01:00,
2013-03-31 20:08:00,36.3,27.5,29.82,West,270,7.0,7.0,70,0.00,,,0.00,WUHU21023XXSP,2013-04-01 01:08:00,
2013-03-31 20:14:00,36.0,27.1,29.82,WNW,292,7.0,7.0,70,0.00,,,0.00,WUHU21023XXSP,2013-04-01 01:14:00,
2013-03-31 20:21:00,35.8,27.3,29.82,WNW,292,3.0,8.0,71,0.00,,,0.00,WUHU21023XXSP,2013-04-01 01:21:00,
2013-03-31 20:27:00,35.8,27.3,29.82,NW,315,4.0,6.0,71,0.00,,,0.00,WUHU21023XXSP,2013-04-01 01:27:00,
2013-03-31 20:33:00,35.8,27.6,29.83,West,270,5.0,6.0,72,0.00,,,0.00,WUHU21023XXSP,2013-04-01 01:33:00,
2013-03-31 20:40:00,35.8,27.6,29.83,WNW,292,0.0,5.0,72,0.00,,,0.00,WUHU21023XXSP,2013-04-01 01:40:00,
2013-03-31 20:46:00,35.8,27.6,29.84,West,270,2.0,2.0,72,0.00,,,0.00,WUHU21023XXSP,2013-04-01 01:46:00,
2013-03-31 20:53:00,35.8,27.6,29.84,West,270,5.0,7.0,72,0.00,,,0.00,WUHU21023XXSP,2013-04-01 01:53:00,
2013-03-31 20:59:00,35.6,27.8,29.84,WNW,292,0.0,9.0,73,0.00,,,0.00,WUHU21023XXSP,2013-04-01 01:59:00,
2013-03-31 21:06:00,35.4,27.6,29.84,WNW,292,7.0,7.0,73,0.00,,,0.00,WUHU21023XXSP,2013-04-01 02:06:00,
2013-03-31 21:12:00,35.4,27.6,29.84,WNW,292,0.0,7.0,73,0.00,,,0.00,WUHU21023XXSP,2013-04-01 02:12:00,
2013-03-31 21:19:00,35.4,27.6,29.84,NW,315,3.0,4.0,73,0.00,,,0.00,WUHU21023XXSP,2013-04-01 02:19:00,
2013-03-31 21:25:00,35.4,27.6,29.85,WNW,292,1.0,3.0,73,0.00,,,0.00,WUHU21023XXSP,2013-04-01 02:25:00,
2013-03-31 21:32:00,35.2,27.1,29.85,WNW,292,0.0,1.0,72,0.00,,,0.00,WUHU21023XXSP,2013-04-01 02:32:00,
2013-03-31 21:38:00,35.1,27.2,29.85,WNW,292,0.0,0.0,73,0.00,,,0.00,WUHU21023XXSP,2013-04-01 02:38:00,
2013-03-31 21:44:00,34.9,26.7,29.86,WNW,292,0.0,0.0,72,0.00,,,0.00,WUHU21023XXSP,2013-04-01 02:44:00,
2013-03-31 21:51:00,34.7,26.9,29.86,WNW,292,0.0,0.0,73,0.00,,,0.00,WUHU21023XXSP,2013-04-01 02:51:00,
2013-03-31 21:57:00,34.3,26.5,29.86,WNW,292,0.0,0.0,73,0.00,,,0.00,WUHU21023XXSP,2013-04-01 02:57:00,
2013-03-31 22:03:00,34.3,26.5,29.86,NW,315,1.0,3.0,73,0.00,,,0.00,WUHU21023XXSP,2013-04-01 03:03:00,
2013-03-31 22:10:00,34.3,26.2,29.86,NW,315,3.0,3.0,72,0.00,,,0.00,WUHU21023XXSP,2013-04-01 03:10:00,
2013-03-31 22:16:00,34.2,26.0,29.87,NW,315,0.0,4.0,72,0.00,,,0.00,WUHU21023XXSP,2013-04-01 03:16:00,
2013-03-31 22:23:00,34.0,25.8,29.87,NW,315,0.0,5.0,72,0.00,,,0.00,WUHU21023XXSP,2013-04-01 03:23:00,
2013-03-31 22:29:00,33.8,25.3,29.87,WNW,292,0.0,5.0,71,0.00,,,0.00,WUHU21023XXSP,2013-04-01 03:29:00,
2013-03-31 22:36:00,33.6,25.1,29.87,WNW,292,0.0,0.0,71,0.00,,,0.00,WUHU21023XXSP,2013-04-01 03:36:00,
2013-03-31 22:42:00,33.6,25.1,29.87,NW,315,0.0,0.0,71,0.00,,,0.00,WUHU21023XXSP,2013-04-01 03:42:00,
2013-03-31 22:48:00,33.4,25.0,29.87,WNW,292,6.0,6.0,71,0.00,,,0.00,WUHU21023XXSP,2013-04-01 03:48:00,
2013-03-31 22:55:00,33.3,24.7,29.87,WNW,292,0.0,6.0,70,0.00,,,0.00,WUHU21023XXSP,2013-04-01 03:55:00,
2013-03-31 23:01:00,33.1,24.0,29.87,WNW,292,0.0,0.0,69,0.00,,,0.00,WUHU21023XXSP,2013-04-01 04:01:00,
2013-03-31 23:03:00,33.1,24.0,29.88,WNW,292,0.0,0.0,69,0.00,,,0.00,WUHU21023XXSP,2013-04-01 04:03:00,
2013-03-31 23:06:00,33.1,24.0,29.88,WNW,292,0.0,0.0,69,0.00,,,0.00,WUHU21023XXSP,2013-04-01 04:06:00,
2013-03-31 23:10:00,32.9,23.8,29.88,NW,315,0.0,0.0,69,0.00,,,0.00,WUHU21023XXSP,2013-04-01 04:10:00,
2013-03-31 23:14:00,32.7,23.3,29.88,WNW,292,0.0,0.0,68,0.00,,,0.00,WUHU21023XXSP,2013-04-01 04:14:00,
2013-03-31 23:21:00,32.5,23.1,29.88,NW,315,0.0,2.0,68,0.00,,,0.00,WUHU21023XXSP,2013-04-01 04:21:00,
2013-03-31 23:27:00,32.4,23.0,29.88,NW,315,0.0,2.0,68,0.00,,,0.00,WUHU21023XXSP,2013-04-01 04:27:00,
2013-03-31 23:33:00,32.2,22.4,29.88,WNW,292,0.0,0.0,67,0.00,,,0.00,WUHU21023XXSP,2013-04-01 04:33:00,
2013-03-31 23:40:00,32.2,22.4,29.89,NW,315,0.0,0.0,67,0.00,,,0.00,WUHU21023XXSP,2013-04-01 04:40:00,
2013-03-31 23:46:00,32.2,22.1,29.89,NW,315,0.0,0.0,66,0.00,,,0.00,WUHU21023XXSP,2013-04-01 04:46:00,
2013-03-31 23:53:00,32.2,22.1,29.89,WNW,292,0.0,5.0,66,0.00,,,0.00,WUHU21023XXSP,2013-04-01 04:53:00,
2013-03-31 23:59:00,31.8,21.4,29.89,WNW,292,0.0,5.0,65,0.00,,,0.00,WUHU21023XXSP,2013-04-01 04:59:00,